createdAt,value
2023-03-31T00:01:15.484Z,99300.09
2023-03-31T00:03:45.117Z,99296.63
2023-03-31T00:06:18.556Z,99289.41
2023-03-31T00:08:51.913Z,99289.28
2023-03-31T00:11:22.797Z,99292.72
2023-03-31T00:13:51.635Z,99294.13
2023-03-31T00:16:20.819Z,99286.22
2023-03-31T00:18:51.261Z,99299.00
2023-03-31T00:21:29.752Z,99292.34
2023-03-31T00:24:01.938Z,99299.97
2023-03-31T00:26:31.666Z,99305.81
2023-03-31T00:29:01.730Z,99306.50
2023-03-31T00:31:31.212Z,99307.06
2023-03-31T00:34:00.789Z,99306.94
2023-03-31T00:36:31.804Z,99303.75
2023-03-31T00:39:04.660Z,99300.56
2023-03-31T00:41:33.800Z,99300.03
2023-03-31T00:44:18.714Z,99295.03
2023-03-31T00:46:56.267Z,99289.88
2023-03-31T00:49:34.021Z,99291.97
2023-03-31T00:52:13.470Z,99291.00
2023-03-31T00:54:47.147Z,99293.47
2023-03-31T00:57:17.652Z,99293.06
2023-03-31T00:59:53.022Z,99286.69
2023-03-31T01:02:22.162Z,99295.53
2023-03-31T01:04:57.527Z,99293.50
2023-03-31T01:07:38.730Z,99297.09
2023-03-31T01:10:09.394Z,99289.19
2023-03-31T01:12:45.344Z,99295.41
2023-03-31T01:15:14.745Z,99284.47
2023-03-31T01:17:45.806Z,99298.91
2023-03-31T01:20:32.640Z,99294.28
2023-03-31T01:26:49.058Z,99292.78
2023-03-31T01:29:45.932Z,99284.75
2023-03-31T01:33:04.771Z,99282.13
2023-03-31T01:36:27.432Z,99281.41
2023-03-31T01:39:44.820Z,99279.75
2023-03-31T01:42:26.244Z,99281.41
2023-03-31T01:45:05.992Z,99286.78
2023-03-31T01:47:44.592Z,99289.59
2023-03-31T01:50:26.663Z,99283.91
2023-03-31T01:53:07.146Z,99289.84
2023-03-31T01:55:42.170Z,99281.41
2023-03-31T01:58:20.353Z,99282.91
2023-03-31T02:00:57.111Z,99293.28
2023-03-31T02:03:34.507Z,99292.91
2023-03-31T02:06:13.824Z,99294.41
2023-03-31T02:08:50.152Z,99300.22
2023-03-31T02:11:19.911Z,99294.84
2023-03-31T02:13:55.661Z,99287.91
2023-03-31T02:16:30.512Z,99295.94
2023-03-31T02:19:05.448Z,99289.72
2023-03-31T02:21:40.845Z,99295.09
2023-03-31T02:24:15.921Z,99305.50
2023-03-31T02:26:53.336Z,99300.34
2023-03-31T02:29:24.579Z,99300.94
2023-03-31T02:32:02.733Z,99299.50
2023-03-31T02:34:31.978Z,99303.78
2023-03-31T02:37:01.013Z,99294.41
2023-03-31T02:39:35.999Z,99292.72
2023-03-31T02:42:07.524Z,99302.69
2023-03-31T02:44:40.323Z,99292.47
2023-03-31T02:47:13.069Z,99293.56
2023-03-31T02:49:47.144Z,99284.44
2023-03-31T02:53:00.888Z,99286.09
2023-03-31T02:55:53.431Z,99300.19
2023-03-31T02:58:41.654Z,99304.63
2023-03-31T03:01:37.665Z,99292.84
2023-03-31T03:04:34.127Z,99304.50
2023-03-31T03:07:14.803Z,99302.25
2023-03-31T03:10:00.314Z,99304.63
2023-03-31T03:12:39.320Z,99310.56
2023-03-31T03:15:13.903Z,99317.03
2023-03-31T03:17:47.630Z,99308.78
2023-03-31T03:20:17.430Z,99312.19
2023-03-31T03:22:46.532Z,99324.13
2023-03-31T03:25:18.232Z,99323.94
2023-03-31T03:27:48.494Z,99325.41
2023-03-31T03:30:17.439Z,99328.06
2023-03-31T03:32:47.840Z,99322.91
2023-03-31T03:35:16.817Z,99324.16
2023-03-31T03:37:45.836Z,99325.66
2023-03-31T03:40:15.431Z,99324.84
2023-03-31T03:42:45.338Z,99324.66
2023-03-31T03:45:14.667Z,99332.91
2023-03-31T03:47:43.865Z,99328.06
2023-03-31T03:50:16.097Z,99331.78
2023-03-31T03:52:45.785Z,99326.59
2023-03-31T03:55:14.859Z,99326.84
2023-03-31T03:57:43.861Z,99325.16
2023-03-31T04:00:13.697Z,99332.22
2023-03-31T04:02:44.437Z,99331.31
2023-03-31T04:05:14.918Z,99326.06
2023-03-31T04:07:44.047Z,99326.44
2023-03-31T04:10:12.934Z,99324.22
2023-03-31T04:12:41.940Z,99328.75
2023-03-31T04:15:11.942Z,99324.59
2023-03-31T04:17:41.059Z,99328.03
2023-03-31T04:20:11.767Z,99333.41
2023-03-31T04:22:42.342Z,99332.91
2023-03-31T04:25:16.743Z,99327.47
2023-03-31T04:27:50.826Z,99329.59
2023-03-31T04:30:23.709Z,99333.16
2023-03-31T04:32:55.571Z,99337.47
2023-03-31T04:35:26.693Z,99328.84
2023-03-31T04:37:59.049Z,99323.47
2023-03-31T04:40:28.172Z,99326.84
2023-03-31T04:42:57.140Z,99315.09
2023-03-31T04:45:25.930Z,99323.31
2023-03-31T04:47:55.019Z,99321.97
2023-03-31T04:50:23.823Z,99326.72
2023-03-31T04:52:52.880Z,99324.66
2023-03-31T04:55:23.129Z,99327.88
2023-03-31T04:57:52.589Z,99327.75
2023-03-31T05:00:23.260Z,99312.44
2023-03-31T05:02:52.729Z,99317.44
2023-03-31T05:05:21.746Z,99307.22
2023-03-31T05:07:50.930Z,99308.75
2023-03-31T05:10:19.905Z,99317.09
2023-03-31T05:12:50.460Z,99317.78
2023-03-31T05:15:19.633Z,99306.44
2023-03-31T05:17:48.852Z,99309.78
2023-03-31T05:20:18.061Z,99303.94
2023-03-31T05:22:47.853Z,99304.38
2023-03-31T05:25:18.825Z,99301.63
2023-03-31T05:27:51.156Z,99301.94
2023-03-31T05:30:19.937Z,99301.56
2023-03-31T05:32:49.000Z,99301.94
2023-03-31T05:35:17.995Z,99301.56
2023-03-31T05:37:47.124Z,99300.44
2023-03-31T05:40:16.282Z,99288.97
2023-03-31T05:42:45.265Z,99290.34
2023-03-31T05:45:15.376Z,99290.91
2023-03-31T05:47:44.442Z,99288.56
2023-03-31T05:50:14.809Z,99292.59
2023-03-31T05:52:44.057Z,99287.22
2023-03-31T05:55:13.326Z,99282.91
2023-03-31T05:57:42.369Z,99284.88
2023-03-31T06:00:15.003Z,99283.06
2023-03-31T06:02:44.152Z,99286.44
2023-03-31T06:05:13.020Z,99278.97
2023-03-31T06:07:42.022Z,99276.50
2023-03-31T06:10:11.477Z,99279.84
2023-03-31T06:12:40.473Z,99279.06
2023-03-31T06:15:10.383Z,99275.59
2023-03-31T06:17:40.872Z,99278.81
2023-03-31T06:20:24.519Z,99273.94
2023-03-31T06:22:56.292Z,99278.41
2023-03-31T06:25:25.154Z,99278.25
2023-03-31T06:27:54.136Z,99281.72
2023-03-31T06:30:22.918Z,99291.13
2023-03-31T06:32:53.354Z,99279.63
2023-03-31T06:35:22.125Z,99288.63
2023-03-31T06:37:51.206Z,99283.78
2023-03-31T06:40:20.372Z,99275.78
2023-03-31T06:42:49.461Z,99276.19
2023-03-31T06:45:18.967Z,99279.78
2023-03-31T06:47:48.199Z,99268.84
2023-03-31T06:50:18.916Z,99270.75
2023-03-31T06:52:47.976Z,99276.56
2023-03-31T06:55:17.013Z,99279.06
2023-03-31T06:57:46.043Z,99280.31
2023-03-31T07:00:16.615Z,99282.94
2023-03-31T07:02:45.718Z,99274.75
2023-03-31T07:05:14.605Z,99274.59
2023-03-31T07:07:46.503Z,99279.03
2023-03-31T07:10:15.508Z,99280.97
2023-03-31T07:12:44.698Z,99280.88
2023-03-31T07:15:13.546Z,99276.50
2023-03-31T07:17:43.133Z,99274.53
2023-03-31T07:20:15.038Z,99288.88
2023-03-31T07:22:47.608Z,99281.94
2023-03-31T07:25:18.958Z,99278.94
2023-03-31T07:27:48.071Z,99273.16
2023-03-31T07:30:20.283Z,99267.53
2023-03-31T07:32:51.513Z,99267.00
2023-03-31T07:35:22.023Z,99264.25
2023-03-31T07:37:53.989Z,99273.25
2023-03-31T07:40:27.161Z,99273.22
2023-03-31T07:42:57.008Z,99272.78
2023-03-31T07:45:28.268Z,99268.19
2023-03-31T07:47:57.412Z,99271.09
2023-03-31T07:50:26.440Z,99269.59
2023-03-31T07:52:59.406Z,99258.28
2023-03-31T07:55:28.232Z,99266.88
2023-03-31T07:57:57.233Z,99260.72
2023-03-31T08:00:26.377Z,99264.91
2023-03-31T08:02:55.435Z,99259.78
2023-03-31T08:05:24.361Z,99250.19
2023-03-31T08:07:53.512Z,99248.00
2023-03-31T08:10:28.015Z,99241.28
2023-03-31T08:12:57.555Z,99243.75
2023-03-31T08:15:26.442Z,99248.13
2023-03-31T08:17:55.550Z,99240.72
2023-03-31T08:20:24.493Z,99240.56
2023-03-31T08:22:53.631Z,99244.59
2023-03-31T08:25:24.625Z,99249.94
2023-03-31T08:27:53.759Z,99235.19
2023-03-31T08:30:22.818Z,99227.38
2023-03-31T08:32:51.899Z,99226.09
2023-03-31T08:35:20.651Z,99228.63
2023-03-31T08:37:49.673Z,99222.03
2023-03-31T08:40:25.321Z,99222.63
2023-03-31T08:42:59.361Z,99212.34
2023-03-31T08:45:35.439Z,99207.97
2023-03-31T08:48:14.877Z,99207.81
2023-03-31T08:50:53.991Z,99200.91
2023-03-31T08:53:30.348Z,99200.81
2023-03-31T08:56:01.685Z,99196.50
2023-03-31T08:58:40.616Z,99192.56
2023-03-31T09:01:24.530Z,99197.84
2023-03-31T09:04:21.051Z,99203.00
2023-03-31T09:07:03.131Z,99196.19
2023-03-31T09:09:55.298Z,99184.25
2023-03-31T09:12:38.968Z,99196.69
2023-03-31T09:15:15.944Z,99187.91
2023-03-31T09:17:48.947Z,99192.72
2023-03-31T09:20:26.142Z,99186.13
2023-03-31T09:23:07.834Z,99183.28
2023-03-31T09:25:42.349Z,99182.28
2023-03-31T09:28:21.865Z,99178.94
2023-03-31T09:30:51.925Z,99183.44
2023-03-31T09:33:31.848Z,99187.25
2023-03-31T09:36:01.467Z,99180.94
2023-03-31T09:38:31.347Z,99180.13
2023-03-31T09:41:03.033Z,99173.94
2023-03-31T09:43:36.267Z,99174.03
2023-03-31T09:46:17.217Z,99177.25
2023-03-31T09:48:56.879Z,99179.09
2023-03-31T09:51:32.830Z,99173.84
2023-03-31T09:54:13.550Z,99173.19
2023-03-31T09:56:53.945Z,99174.44
2023-03-31T09:59:34.131Z,99162.84
2023-03-31T10:02:26.738Z,99161.47
2023-03-31T10:04:56.385Z,99161.31
2023-03-31T10:07:27.552Z,99164.50
2023-03-31T10:09:57.585Z,99155.09
2023-03-31T10:12:30.182Z,99152.06
2023-03-31T10:15:21.006Z,99154.16
2023-03-31T10:17:55.451Z,99143.25
2023-03-31T10:20:35.475Z,99135.25
2023-03-31T10:23:16.577Z,99133.28
2023-03-31T10:25:47.516Z,99122.00
2023-03-31T10:28:21.103Z,99122.34
2023-03-31T10:30:55.003Z,99123.38
2023-03-31T10:33:28.229Z,99123.53
2023-03-31T10:36:00.477Z,99121.16
2023-03-31T10:38:34.993Z,99108.47
2023-03-31T10:41:04.912Z,99126.78
2023-03-31T10:43:42.916Z,99114.25
2023-03-31T10:46:14.094Z,99117.28
2023-03-31T10:48:45.105Z,99114.03
2023-03-31T10:51:19.060Z,99119.31
2023-03-31T10:53:50.905Z,99116.56
2023-03-31T10:56:39.877Z,99111.53
2023-03-31T10:59:25.237Z,99102.53
2023-03-31T11:02:36.381Z,99104.28
2023-03-31T11:05:16.715Z,99090.41
2023-03-31T11:08:04.828Z,99090.44
2023-03-31T11:10:58.936Z,99076.94
2023-03-31T11:13:40.479Z,99085.84
2023-03-31T11:16:25.258Z,99070.31
2023-03-31T11:19:21.132Z,99069.75
2023-03-31T11:22:04.110Z,99070.66
2023-03-31T11:25:05.544Z,99061.88
2023-03-31T11:28:02.362Z,99067.06
2023-03-31T11:30:39.475Z,99063.41
2023-03-31T11:33:45.684Z,99064.41
2023-03-31T11:36:49.567Z,99064.44
2023-03-31T11:39:41.829Z,99057.84
2023-03-31T11:42:18.531Z,99056.59
2023-03-31T11:44:54.725Z,99047.69
2023-03-31T11:47:30.570Z,99060.81
2023-03-31T11:50:05.990Z,99050.06
2023-03-31T11:52:41.405Z,99049.00
2023-03-31T11:55:19.438Z,99040.75
2023-03-31T11:57:59.682Z,99031.19
2023-03-31T12:00:33.098Z,99039.00
2023-03-31T12:03:12.452Z,99033.28
2023-03-31T12:05:48.733Z,99027.41
2023-03-31T12:08:30.623Z,99020.88
2023-03-31T12:11:08.855Z,99010.13
2023-03-31T12:13:50.427Z,99014.06
2023-03-31T12:16:25.122Z,99012.34
2023-03-31T12:19:06.141Z,99002.47
2023-03-31T12:21:40.152Z,99005.59
2023-03-31T12:24:15.142Z,99003.75
2023-03-31T12:26:57.773Z,98997.19
2023-03-31T12:29:33.525Z,99002.31
2023-03-31T12:32:12.148Z,98986.53
2023-03-31T12:34:51.322Z,98986.72
2023-03-31T12:38:01.703Z,98985.28
2023-03-31T12:40:51.304Z,98978.69
2023-03-31T12:43:50.460Z,98981.88
2023-03-31T12:46:49.665Z,98973.50
2023-03-31T12:49:41.335Z,98966.09
2023-03-31T12:52:19.507Z,98973.94
2023-03-31T12:55:33.897Z,98957.72
2023-03-31T12:58:46.034Z,98953.34
2023-03-31T13:01:21.662Z,98953.00
2023-03-31T13:04:11.329Z,98951.50
2023-03-31T13:07:01.643Z,98945.09
2023-03-31T13:09:52.293Z,98941.56
2023-03-31T13:12:25.717Z,98941.38
2023-03-31T13:18:02.087Z,98939.41
2023-03-31T13:20:37.818Z,98941.28
2023-03-31T13:23:19.810Z,98935.69
2023-03-31T13:25:51.979Z,98936.78
2023-03-31T13:28:45.250Z,98926.25
2023-03-31T13:31:17.438Z,98921.31
2023-03-31T13:33:57.643Z,98918.66
2023-03-31T13:37:01.386Z,98918.94
2023-03-31T13:40:01.971Z,98918.91
2023-03-31T13:43:02.317Z,98915.97
2023-03-31T13:46:01.408Z,98915.06
2023-03-31T13:48:50.704Z,98907.72
2023-03-31T13:51:47.094Z,98901.34
2023-03-31T13:54:59.617Z,98896.28
2023-03-31T13:58:41.162Z,98880.94
2023-03-31T14:01:51.450Z,98880.72
2023-03-31T14:05:06.274Z,98872.03
2023-03-31T14:07:42.958Z,98870.16
2023-03-31T14:10:27.431Z,98867.75
2023-03-31T14:13:09.197Z,98867.78
2023-03-31T14:15:43.856Z,98865.94
2023-03-31T14:18:21.542Z,98861.69
2023-03-31T14:21:11.359Z,98860.59
2023-03-31T14:23:56.555Z,98855.94
2023-03-31T14:26:51.726Z,98856.66
2023-03-31T14:29:29.753Z,98853.31
2023-03-31T14:32:08.379Z,98851.22
2023-03-31T14:34:55.880Z,98844.44
2023-03-31T14:37:28.227Z,98843.16
2023-03-31T14:40:00.037Z,98838.91
2023-03-31T14:42:39.540Z,98845.25
2023-03-31T14:45:19.986Z,98841.91
2023-03-31T14:47:58.181Z,98837.00
2023-03-31T14:50:34.973Z,98843.75
2023-03-31T14:53:06.107Z,98838.63
2023-03-31T14:58:12.452Z,98834.53
2023-03-31T15:00:42.699Z,98834.72
2023-03-31T15:03:17.836Z,98826.47
2023-03-31T15:05:49.123Z,98830.50
2023-03-31T15:08:25.258Z,98829.25
2023-03-31T15:11:09.764Z,98823.19
2023-03-31T15:13:53.034Z,98824.72
2023-03-31T15:16:42.269Z,98838.47
2023-03-31T15:19:20.636Z,98855.09
2023-03-31T15:22:01.738Z,98849.75
2023-03-31T15:24:33.210Z,98840.22
2023-03-31T15:27:08.598Z,98832.84
2023-03-31T15:29:42.809Z,98834.75
2023-03-31T15:32:18.953Z,98826.75
2023-03-31T15:34:48.456Z,98829.63
2023-03-31T15:37:17.563Z,98826.34
2023-03-31T15:39:50.164Z,98813.09
2023-03-31T15:42:20.466Z,98813.63
2023-03-31T15:44:56.788Z,98816.66
2023-03-31T15:47:30.572Z,98808.38
2023-03-31T15:50:13.220Z,98800.78
2023-03-31T15:52:53.129Z,98797.69
2023-03-31T15:55:31.276Z,98790.28
2023-03-31T15:58:02.410Z,98795.47
2023-03-31T16:00:47.400Z,98785.28
2023-03-31T16:03:23.534Z,98793.50
2023-03-31T16:05:57.995Z,98787.13
2023-03-31T16:08:33.840Z,98779.81
2023-03-31T16:11:11.191Z,98780.44
2023-03-31T16:13:47.940Z,98765.78
2023-03-31T16:16:22.305Z,98769.66
2023-03-31T16:18:58.081Z,98766.84
2023-03-31T16:21:34.968Z,98766.50
2023-03-31T16:24:04.159Z,98762.84
2023-03-31T16:26:35.737Z,98767.09
2023-03-31T16:29:06.231Z,98761.25
2023-03-31T16:31:39.595Z,98754.16
2023-03-31T16:34:11.946Z,98754.59
2023-03-31T16:36:41.226Z,98752.47
2023-03-31T16:39:10.104Z,98750.41
2023-03-31T16:41:40.704Z,98746.25
2023-03-31T16:44:09.599Z,98744.44
2023-03-31T16:46:38.817Z,98742.78
2023-03-31T16:49:07.802Z,98742.94
2023-03-31T16:51:36.988Z,98734.81
2023-03-31T16:54:06.319Z,98733.66
2023-03-31T16:56:35.594Z,98727.72
2023-03-31T16:59:08.265Z,98725.59
2023-03-31T17:01:37.633Z,98726.88
2023-03-31T17:04:07.036Z,98723.25
2023-03-31T17:06:36.433Z,98725.75
2023-03-31T17:09:05.566Z,98720.47
2023-03-31T17:11:35.129Z,98719.00
2023-03-31T17:14:06.428Z,98721.59
2023-03-31T17:16:47.362Z,98721.13
2023-03-31T17:19:18.132Z,98715.72
2023-03-31T17:21:47.321Z,98733.66
2023-03-31T17:24:16.398Z,98789.81
2023-03-31T17:26:45.724Z,98764.59
2023-03-31T17:29:16.764Z,98763.69
2023-03-31T17:31:46.117Z,98767.94
2023-03-31T17:34:14.902Z,98764.72
2023-03-31T17:36:44.550Z,98764.63
2023-03-31T17:39:13.364Z,98765.03
2023-03-31T17:41:42.434Z,98757.56
2023-03-31T17:44:12.262Z,98756.53
2023-03-31T17:46:42.854Z,98757.97
2023-03-31T17:49:11.674Z,98758.25
2023-03-31T17:51:40.727Z,98755.78
2023-03-31T17:54:09.452Z,98758.56
2023-03-31T17:56:38.973Z,98754.59
2023-03-31T17:59:07.689Z,98756.69
2023-03-31T18:01:36.816Z,98756.72
2023-03-31T18:04:07.015Z,98755.91
2023-03-31T18:06:36.099Z,98747.75
2023-03-31T18:09:06.063Z,98748.34
2023-03-31T18:11:35.230Z,98745.72
2023-03-31T18:14:04.476Z,98746.00
2023-03-31T18:16:33.991Z,98747.97
2023-03-31T18:19:03.159Z,98736.63
2023-03-31T18:21:33.556Z,98736.38
2023-03-31T18:24:02.733Z,98733.34
2023-03-31T18:26:31.829Z,98728.38
2023-03-31T18:29:00.682Z,98730.63
2023-03-31T18:31:30.877Z,98735.06
2023-03-31T18:33:59.721Z,98738.41
2023-03-31T18:36:29.831Z,98725.56
2023-03-31T18:39:00.120Z,98729.16
2023-03-31T18:41:29.909Z,98727.22
2023-03-31T18:43:59.028Z,98717.28
2023-03-31T18:46:28.209Z,98718.41
2023-03-31T18:48:57.013Z,98717.28
2023-03-31T18:51:26.087Z,98710.09
2023-03-31T18:53:54.931Z,98703.25
2023-03-31T18:56:25.294Z,98702.59
2023-03-31T18:58:54.081Z,98698.66
2023-03-31T19:01:24.221Z,98701.59
2023-03-31T19:03:53.115Z,98694.53
2023-03-31T19:06:22.515Z,98694.09
2023-03-31T19:08:52.014Z,98692.84
2023-03-31T19:11:21.067Z,98682.84
2023-03-31T19:13:52.772Z,98673.56
2023-03-31T19:16:22.068Z,98691.16
2023-03-31T19:18:50.952Z,98689.66
2023-03-31T19:21:20.246Z,98685.22
2023-03-31T19:23:49.340Z,98686.34
2023-03-31T19:26:19.788Z,98681.22
2023-03-31T19:28:50.128Z,98679.97
2023-03-31T19:31:19.268Z,98677.53
2023-03-31T19:33:48.450Z,98667.31
2023-03-31T19:36:18.269Z,98664.53
2023-03-31T19:38:47.051Z,98661.09
2023-03-31T19:41:18.238Z,98656.34
2023-03-31T19:43:47.990Z,98650.94
2023-03-31T19:46:19.760Z,98641.53
2023-03-31T19:48:48.578Z,98636.44
2023-03-31T19:51:18.963Z,98631.00
2023-03-31T19:53:48.044Z,98622.16
2023-03-31T19:56:18.906Z,98620.50
2023-03-31T19:58:50.152Z,98615.56
2023-03-31T20:01:23.402Z,98611.13
2023-03-31T20:03:53.166Z,98616.38
2023-03-31T20:06:24.915Z,98616.38
2023-03-31T20:08:56.119Z,98623.59
2023-03-31T20:11:26.118Z,98634.78
2023-03-31T20:13:56.267Z,98631.47
2023-03-31T20:16:29.310Z,98636.88
2023-03-31T20:19:01.354Z,98631.19
2023-03-31T20:21:33.018Z,98626.13
2023-03-31T20:24:01.915Z,98623.66
2023-03-31T20:26:32.649Z,98628.91
2023-03-31T20:29:03.992Z,98631.00
2023-03-31T20:31:37.654Z,98623.78
2023-03-31T20:34:12.260Z,98612.97
2023-03-31T20:36:43.923Z,98613.13
2023-03-31T20:39:16.195Z,98617.72
2023-03-31T20:41:45.913Z,98609.16
2023-03-31T20:44:15.828Z,98599.31
2023-03-31T20:46:46.719Z,98606.53
2023-03-31T20:49:15.636Z,98598.25
2023-03-31T20:51:46.458Z,98599.22
2023-03-31T20:54:15.375Z,98603.81
2023-03-31T20:56:44.715Z,98596.72
2023-03-31T20:59:16.300Z,98594.09
2023-03-31T21:01:49.405Z,98593.28
2023-03-31T21:04:18.327Z,98594.78
2023-03-31T21:06:48.944Z,98591.31
2023-03-31T21:09:18.497Z,98595.78
2023-03-31T21:11:47.761Z,98588.25
2023-03-31T21:14:17.877Z,98584.63
2023-03-31T21:16:48.769Z,98581.06
2023-03-31T21:19:17.562Z,98586.59
2023-03-31T21:21:46.597Z,98585.63
2023-03-31T21:24:16.364Z,98577.13
2023-03-31T21:26:45.487Z,98584.06
2023-03-31T21:29:14.394Z,98583.28
2023-03-31T21:31:45.030Z,98576.66
2023-03-31T21:34:15.252Z,98579.69
2023-03-31T21:36:44.278Z,98575.13
2023-03-31T21:39:13.076Z,98577.22
2023-03-31T21:41:42.312Z,98567.38
2023-03-31T21:44:11.194Z,98561.59
2023-03-31T21:46:41.228Z,98567.53
2023-03-31T21:49:10.033Z,98567.75
2023-03-31T21:51:40.518Z,98566.94
2023-03-31T21:54:09.239Z,98563.47
2023-03-31T21:56:38.294Z,98566.25
2023-03-31T21:59:07.362Z,98568.34
2023-03-31T22:01:36.371Z,98560.44
2023-03-31T22:04:05.183Z,98568.88
2023-03-31T22:06:34.628Z,98559.72
2023-03-31T22:09:04.923Z,98562.25
2023-03-31T22:11:33.993Z,98555.94
2023-03-31T22:14:02.764Z,98556.78
2023-03-31T22:16:32.125Z,98555.34
2023-03-31T22:19:00.973Z,98559.19
2023-03-31T22:21:43.589Z,98557.78
2023-03-31T22:24:14.542Z,98552.22
2023-03-31T22:26:43.714Z,98563.09
2023-03-31T22:29:16.602Z,98554.06
2023-03-31T22:31:45.701Z,98565.44
2023-03-31T22:34:15.543Z,98561.81
2023-03-31T22:36:44.576Z,98558.09
2023-03-31T22:39:14.739Z,98551.81
2023-03-31T22:41:44.314Z,98549.34
2023-03-31T22:44:13.241Z,98554.16
2023-03-31T22:46:42.576Z,98553.06
2023-03-31T22:49:11.343Z,98549.41
2023-03-31T22:51:40.847Z,98545.16
2023-03-31T22:54:15.759Z,98534.41
2023-03-31T22:56:45.442Z,98535.00
2023-03-31T22:59:14.656Z,98537.47
2023-03-31T23:01:43.761Z,98535.00
2023-03-31T23:04:12.579Z,98536.44
2023-03-31T23:06:41.581Z,98536.72
2023-03-31T23:09:10.507Z,98537.56
2023-03-31T23:11:40.947Z,98538.06
2023-03-31T23:14:09.818Z,98531.84
2023-03-31T23:16:38.995Z,98533.50
2023-03-31T23:19:08.150Z,98530.72
2023-03-31T23:21:37.479Z,98539.16
2023-03-31T23:24:06.781Z,98539.16
2023-03-31T23:26:36.142Z,98530.41
2023-03-31T23:29:06.720Z,98531.25
2023-03-31T23:31:35.895Z,98532.53
2023-03-31T23:34:04.677Z,98526.28
2023-03-31T23:36:33.793Z,98522.81
2023-03-31T23:39:02.803Z,98525.16
2023-03-31T23:41:31.806Z,98522.53
2023-03-31T23:44:00.723Z,98532.75
2023-03-31T23:46:32.099Z,98522.22
2023-03-31T23:49:02.691Z,98520.56
2023-03-31T23:51:31.793Z,98523.88
2023-03-31T23:54:00.737Z,98523.19
2023-03-31T23:56:30.643Z,98521.72
2023-03-31T23:58:59.615Z,98518.56
